createdAt,value
2022-08-26T00:02:20.938Z,78.95
2022-08-26T00:04:48.429Z,79.23
2022-08-26T00:07:17.192Z,80.22
2022-08-26T00:09:47.402Z,79.89
2022-08-26T00:12:16.657Z,79.56
2022-08-26T00:14:43.202Z,79.59
2022-08-26T00:17:10.215Z,80.70
2022-08-26T00:19:37.276Z,80.90
2022-08-26T00:22:06.577Z,81.06
2022-08-26T00:24:33.190Z,82.01
2022-08-26T00:27:02.245Z,80.48
2022-08-26T00:29:35.573Z,80.92
2022-08-26T00:32:04.355Z,81.04
2022-08-26T00:34:31.035Z,82.18
2022-08-26T00:36:57.577Z,80.50
2022-08-26T00:39:24.211Z,82.28
2022-08-26T00:41:50.777Z,83.62
2022-08-26T00:44:20.337Z,83.59
2022-08-26T00:46:51.395Z,87.08
2022-08-26T00:49:25.906Z,87.30
2022-08-26T00:51:57.293Z,85.72
2022-08-26T00:54:27.408Z,85.58
2022-08-26T00:57:16.722Z,85.62
2022-08-26T00:59:50.848Z,84.21
2022-08-26T01:02:21.469Z,85.25
2022-08-26T01:04:56.582Z,86.05
2022-08-26T01:07:30.328Z,86.23
2022-08-26T01:09:59.852Z,85.08
2022-08-26T01:12:35.521Z,85.33
2022-08-26T01:15:08.667Z,85.13
2022-08-26T01:17:38.487Z,86.10
2022-08-26T01:20:28.291Z,86.04
2022-08-26T01:23:01.655Z,87.00
2022-08-26T01:25:35.140Z,86.85
2022-08-26T01:28:05.986Z,87.33
2022-08-26T01:30:34.070Z,87.17
2022-08-26T01:33:09.115Z,87.50
2022-08-26T01:35:38.381Z,87.71
2022-08-26T01:38:07.340Z,87.34
2022-08-26T01:40:37.300Z,88.64
2022-08-26T01:43:10.241Z,88.23
2022-08-26T01:45:40.429Z,88.00
2022-08-26T01:48:11.658Z,87.56
2022-08-26T01:50:38.954Z,87.71
2022-08-26T01:53:12.026Z,87.91
2022-08-26T01:55:42.933Z,87.91
2022-08-26T01:58:18.223Z,88.15
2022-08-26T02:00:45.756Z,88.00
2022-08-26T02:03:19.214Z,89.67
2022-08-26T02:05:58.501Z,89.74
2022-08-26T02:08:36.948Z,89.82
2022-08-26T02:11:08.907Z,89.75
2022-08-26T02:13:42.050Z,89.95
2022-08-26T02:16:09.393Z,89.95
2022-08-26T02:18:38.939Z,89.94
2022-08-26T02:21:07.482Z,90.32
2022-08-26T02:23:37.790Z,91.17
2022-08-26T02:26:10.262Z,91.93
2022-08-26T02:28:46.871Z,95.84
2022-08-26T02:31:13.580Z,94.74
2022-08-26T02:33:43.027Z,93.16
2022-08-26T02:36:13.413Z,92.89
2022-08-26T02:38:40.180Z,93.55
2022-08-26T02:41:10.199Z,93.76
2022-08-26T02:43:36.965Z,93.98
2022-08-26T02:46:03.991Z,95.59
2022-08-26T02:48:31.151Z,94.11
2022-08-26T02:51:01.760Z,94.88
2022-08-26T02:53:32.132Z,94.88
2022-08-26T02:56:07.279Z,94.19
2022-08-26T02:58:38.713Z,94.57
2022-08-26T03:01:06.545Z,95.18
2022-08-26T03:03:35.666Z,95.50
2022-08-26T03:06:04.666Z,95.05
2022-08-26T03:08:31.263Z,95.02
2022-08-26T03:10:57.888Z,95.41
2022-08-26T03:13:24.726Z,95.69
2022-08-26T03:15:53.926Z,95.20
2022-08-26T03:18:20.973Z,94.28
2022-08-26T03:20:50.047Z,95.51
2022-08-26T03:23:16.620Z,95.41
2022-08-26T03:25:51.569Z,96.40
2022-08-26T03:28:19.522Z,95.64
2022-08-26T03:30:49.302Z,95.38
2022-08-26T03:33:16.628Z,95.47
2022-08-26T03:35:45.591Z,95.76
2022-08-26T03:38:12.204Z,95.75
2022-08-26T03:40:42.742Z,95.70
2022-08-26T03:43:11.912Z,96.20
2022-08-26T03:45:39.515Z,95.45
2022-08-26T03:48:10.309Z,95.93
2022-08-26T03:50:37.616Z,95.58
2022-08-26T03:53:04.914Z,96.15
2022-08-26T03:55:36.126Z,95.93
2022-08-26T03:58:04.147Z,96.19
2022-08-26T04:00:31.009Z,96.45
2022-08-26T04:02:57.694Z,96.53
2022-08-26T04:05:28.369Z,97.15
2022-08-26T04:07:55.036Z,96.88
2022-08-26T04:10:29.069Z,96.88
2022-08-26T04:12:59.381Z,96.85
2022-08-26T04:15:27.061Z,97.29
2022-08-26T04:17:54.396Z,97.54
2022-08-26T04:20:24.832Z,98.04
2022-08-26T04:22:51.983Z,97.85
2022-08-26T04:25:21.354Z,97.07
2022-08-26T04:27:48.542Z,96.89
2022-08-26T04:30:15.399Z,98.08
2022-08-26T04:32:44.177Z,98.16
2022-08-26T04:35:10.858Z,98.04
2022-08-26T04:37:44.011Z,98.62
2022-08-26T04:40:13.124Z,98.54
2022-08-26T04:42:40.169Z,98.64
2022-08-26T04:45:09.903Z,98.50
2022-08-26T04:47:37.237Z,97.92
2022-08-26T04:50:07.388Z,98.89
2022-08-26T04:52:35.602Z,98.64
2022-08-26T04:55:05.967Z,98.57
2022-08-26T04:57:33.717Z,98.63
2022-08-26T05:00:02.561Z,98.65
2022-08-26T05:02:31.909Z,97.93
2022-08-26T05:05:02.085Z,97.38
2022-08-26T05:07:28.890Z,97.09
2022-08-26T05:09:55.435Z,98.14
2022-08-26T05:12:24.536Z,98.50
2022-08-26T05:14:51.176Z,98.18
2022-08-26T05:17:18.433Z,98.24
2022-08-26T05:19:47.366Z,98.08
2022-08-26T05:22:17.333Z,97.60
2022-08-26T05:24:49.737Z,97.79
2022-08-26T05:27:21.276Z,97.91
2022-08-26T05:29:48.258Z,97.73
2022-08-26T05:32:23.238Z,97.92
2022-08-26T05:34:57.109Z,100.00
2022-08-26T05:37:25.205Z,98.71
2022-08-26T05:39:52.139Z,98.07
2022-08-26T05:42:20.457Z,97.57
2022-08-26T05:44:55.487Z,97.17
2022-08-26T05:47:22.806Z,97.45
2022-08-26T05:49:51.649Z,96.97
2022-08-26T05:52:19.103Z,96.31
2022-08-26T05:54:45.643Z,92.41
2022-08-26T05:57:14.267Z,90.11
2022-08-26T05:59:40.901Z,90.15
2022-08-26T06:02:08.563Z,91.68
2022-08-26T06:04:35.590Z,93.33
2022-08-26T06:07:03.139Z,92.64
2022-08-26T06:09:31.991Z,91.67
2022-08-26T06:12:02.194Z,91.76
2022-08-26T06:14:28.924Z,91.85
2022-08-26T06:16:58.040Z,93.48
2022-08-26T06:19:25.044Z,92.94
2022-08-26T06:22:23.550Z,93.95
2022-08-26T06:25:09.378Z,94.29
2022-08-26T06:27:41.351Z,94.18
2022-08-26T06:30:11.521Z,93.87
2022-08-26T06:32:39.049Z,92.90
2022-08-26T06:35:12.086Z,91.78
2022-08-26T06:37:43.801Z,91.25
2022-08-26T06:40:13.257Z,90.99
2022-08-26T06:42:43.009Z,90.65
2022-08-26T06:45:12.394Z,90.75
2022-08-26T06:47:38.982Z,90.86
2022-08-26T06:50:06.163Z,89.36
2022-08-26T06:52:34.947Z,88.06
2022-08-26T06:55:01.680Z,88.59
2022-08-26T06:57:28.688Z,87.06
2022-08-26T06:59:58.358Z,86.16
2022-08-26T07:02:25.096Z,85.97
2022-08-26T07:04:58.156Z,84.58
2022-08-26T07:07:30.159Z,84.70
2022-08-26T07:09:59.973Z,83.19
2022-08-26T07:12:29.228Z,79.13
2022-08-26T07:14:58.367Z,80.85
2022-08-26T07:17:25.373Z,80.09
2022-08-26T07:19:54.159Z,79.66
2022-08-26T07:22:22.987Z,77.65
2022-08-26T07:24:50.827Z,77.46
2022-08-26T07:27:18.008Z,76.42
2022-08-26T07:29:45.377Z,77.42
2022-08-26T07:32:17.074Z,75.32
2022-08-26T07:34:47.655Z,74.50
2022-08-26T07:37:16.809Z,73.12
2022-08-26T07:39:46.844Z,72.28
2022-08-26T07:42:16.676Z,73.67
2022-08-26T07:44:45.297Z,73.15
2022-08-26T07:47:24.828Z,74.22
2022-08-26T07:49:57.576Z,72.56
2022-08-26T07:52:29.056Z,72.39
2022-08-26T07:55:00.664Z,72.87
2022-08-26T07:57:30.833Z,74.04
2022-08-26T08:00:00.800Z,73.31
2022-08-26T08:02:29.099Z,72.49
2022-08-26T08:04:56.804Z,72.40
2022-08-26T08:07:45.018Z,72.38
2022-08-26T08:10:21.714Z,70.15
2022-08-26T08:12:52.875Z,69.39
2022-08-26T08:15:27.833Z,69.35
2022-08-26T08:18:00.190Z,69.49
2022-08-26T08:20:28.447Z,68.79
2022-08-26T08:22:59.643Z,67.20
2022-08-26T08:25:26.270Z,67.01
2022-08-26T08:27:53.208Z,65.83
2022-08-26T08:30:23.109Z,65.92
2022-08-26T08:32:52.494Z,64.21
2022-08-26T08:35:26.496Z,63.13
2022-08-26T08:37:57.974Z,63.15
2022-08-26T08:40:29.444Z,61.88
2022-08-26T08:42:59.000Z,60.58
2022-08-26T08:45:36.278Z,60.25
2022-08-26T08:48:29.654Z,58.82
2022-08-26T08:51:07.987Z,58.19
2022-08-26T08:53:45.184Z,57.87
2022-08-26T08:56:26.254Z,57.40
2022-08-26T08:59:20.350Z,57.22
2022-08-26T09:01:54.134Z,57.81
2022-08-26T09:04:48.170Z,57.26
2022-08-26T09:07:42.457Z,58.59
2022-08-26T09:10:41.313Z,57.83
2022-08-26T09:13:16.900Z,57.46
2022-08-26T09:16:02.126Z,56.67
2022-08-26T09:18:54.197Z,55.43
2022-08-26T09:21:25.294Z,54.18
2022-08-26T09:23:57.008Z,53.46
2022-08-26T09:26:41.305Z,53.82
2022-08-26T09:29:23.336Z,53.13
2022-08-26T09:31:51.518Z,52.25
2022-08-26T09:34:27.434Z,52.76
2022-08-26T09:36:58.985Z,51.36
2022-08-26T09:39:28.369Z,51.88
2022-08-26T09:42:20.646Z,51.38
2022-08-26T09:45:08.597Z,51.32
2022-08-26T09:47:39.062Z,51.36
2022-08-26T09:50:19.873Z,50.59
2022-08-26T09:52:47.111Z,49.96
2022-08-26T09:55:21.376Z,50.19
2022-08-26T09:57:51.336Z,50.77
2022-08-26T10:00:23.871Z,49.25
2022-08-26T10:02:57.869Z,50.48
2022-08-26T10:05:43.799Z,49.85
2022-08-26T10:08:18.592Z,49.43
2022-08-26T10:10:48.861Z,48.38
2022-08-26T10:13:23.646Z,46.50
2022-08-26T10:16:20.452Z,47.19
2022-08-26T10:19:00.296Z,47.42
2022-08-26T10:21:35.591Z,45.45
2022-08-26T10:24:07.233Z,43.63
2022-08-26T10:27:01.293Z,44.35
2022-08-26T10:29:45.940Z,44.05
2022-08-26T10:32:40.784Z,43.14
2022-08-26T10:35:11.659Z,43.61
2022-08-26T10:37:46.707Z,43.35
2022-08-26T10:40:35.477Z,42.74
2022-08-26T10:43:21.199Z,43.44
2022-08-26T10:45:53.290Z,43.01
2022-08-26T10:48:44.612Z,42.74
2022-08-26T10:51:15.017Z,43.53
2022-08-26T10:53:51.375Z,42.84
2022-08-26T10:56:46.627Z,43.34
2022-08-26T10:59:16.055Z,44.32
2022-08-26T11:01:54.843Z,44.19
2022-08-26T11:04:48.188Z,43.90
2022-08-26T11:07:31.741Z,44.30
2022-08-26T11:10:30.986Z,43.64
2022-08-26T11:13:00.215Z,43.59
2022-08-26T11:15:28.160Z,43.61
2022-08-26T11:18:02.892Z,43.52
2022-08-26T11:20:36.563Z,43.07
2022-08-26T11:23:12.466Z,43.39
2022-08-26T11:26:12.551Z,42.30
2022-08-26T11:28:53.424Z,43.65
2022-08-26T11:31:26.922Z,43.40
2022-08-26T11:34:02.658Z,43.06
2022-08-26T11:36:49.934Z,42.34
2022-08-26T11:39:49.358Z,42.16
2022-08-26T11:42:38.160Z,41.61
2022-08-26T11:45:17.430Z,41.73
2022-08-26T11:47:44.758Z,41.57
2022-08-26T11:50:14.350Z,41.20
2022-08-26T11:52:50.496Z,41.64
2022-08-26T11:55:17.883Z,41.77
2022-08-26T11:57:53.196Z,41.49
2022-08-26T12:00:35.370Z,41.33
2022-08-26T12:03:07.479Z,41.03
2022-08-26T12:05:45.946Z,40.73
2022-08-26T12:08:18.152Z,40.27
2022-08-26T12:10:45.465Z,40.67
2022-08-26T12:13:26.310Z,40.86
2022-08-26T12:16:00.121Z,41.35
2022-08-26T12:18:34.039Z,40.90
2022-08-26T12:21:14.536Z,40.88
2022-08-26T12:23:46.805Z,40.50
2022-08-26T12:26:25.486Z,41.19
2022-08-26T12:28:54.425Z,41.28
2022-08-26T12:31:24.608Z,40.70
2022-08-26T12:33:54.831Z,40.43
2022-08-26T12:36:39.367Z,41.01
2022-08-26T12:39:10.966Z,40.13
2022-08-26T12:41:55.978Z,40.89
2022-08-26T12:44:53.158Z,40.41
2022-08-26T12:47:43.203Z,40.94
2022-08-26T12:50:12.863Z,40.67
2022-08-26T12:53:01.465Z,40.83
2022-08-26T12:55:35.545Z,40.49
2022-08-26T12:58:31.641Z,40.99
2022-08-26T13:01:22.681Z,41.25
2022-08-26T13:03:52.415Z,41.17
2022-08-26T13:06:28.188Z,41.13
2022-08-26T13:09:25.382Z,41.54
2022-08-26T13:11:54.596Z,42.87
2022-08-26T13:14:24.932Z,42.14
2022-08-26T13:17:00.024Z,42.50
2022-08-26T13:19:29.984Z,42.00
2022-08-26T13:21:58.788Z,42.89
2022-08-26T13:24:42.030Z,43.39
2022-08-26T13:27:13.594Z,43.23
2022-08-26T13:29:42.769Z,42.78
2022-08-26T13:32:09.758Z,43.03
2022-08-26T13:34:37.476Z,43.49
2022-08-26T13:37:07.380Z,43.53
2022-08-26T13:39:36.792Z,44.14
2022-08-26T13:42:03.576Z,44.18
2022-08-26T13:44:30.242Z,43.97
2022-08-26T13:46:59.882Z,43.98
2022-08-26T13:49:26.493Z,43.88
2022-08-26T13:51:55.380Z,43.60
2022-08-26T13:54:22.137Z,43.43
2022-08-26T13:56:48.760Z,43.78
2022-08-26T13:59:15.407Z,42.70
2022-08-26T14:01:44.801Z,43.56
2022-08-26T14:04:14.088Z,43.24
2022-08-26T14:06:40.739Z,43.84
2022-08-26T14:09:07.384Z,43.99
2022-08-26T14:11:53.946Z,44.57
2022-08-26T14:14:25.053Z,45.29
2022-08-26T14:16:58.849Z,45.57
2022-08-26T14:19:26.841Z,46.14
2022-08-26T14:21:53.534Z,47.84
2022-08-26T14:24:20.122Z,49.06
2022-08-26T14:26:48.582Z,49.76
2022-08-26T14:29:16.797Z,51.37
2022-08-26T14:31:44.187Z,51.54
2022-08-26T14:34:14.803Z,52.52
2022-08-26T14:36:41.694Z,53.00
2022-08-26T14:39:10.649Z,53.65
2022-08-26T14:41:54.042Z,53.91
2022-08-26T14:44:25.765Z,54.54
2022-08-26T14:46:55.708Z,55.19
2022-08-26T14:49:24.425Z,55.68
2022-08-26T14:51:51.116Z,55.71
2022-08-26T14:54:18.589Z,55.77
2022-08-26T14:56:47.231Z,56.37
2022-08-26T14:59:18.953Z,57.04
2022-08-26T15:01:45.813Z,56.66
2022-08-26T15:04:15.502Z,57.71
2022-08-26T15:06:44.676Z,57.48
2022-08-26T15:09:14.438Z,57.13
2022-08-26T15:11:43.542Z,57.99
2022-08-26T15:14:18.940Z,57.76
2022-08-26T15:16:48.932Z,57.85
2022-08-26T15:19:16.446Z,58.37
2022-08-26T15:21:47.131Z,58.32
2022-08-26T15:24:16.083Z,58.14
2022-08-26T15:26:45.789Z,58.19
2022-08-26T15:29:12.983Z,58.26
2022-08-26T15:31:43.069Z,58.78
2022-08-26T15:34:16.831Z,59.24
2022-08-26T15:36:46.481Z,59.16
2022-08-26T15:39:17.257Z,59.18
2022-08-26T15:41:46.479Z,59.64
2022-08-26T15:44:14.310Z,59.43
2022-08-26T15:46:42.161Z,59.89
2022-08-26T15:49:18.193Z,60.15
2022-08-26T15:51:48.037Z,60.70
2022-08-26T15:54:23.031Z,60.63
2022-08-26T15:56:53.098Z,60.88
2022-08-26T15:59:22.770Z,61.01
2022-08-26T16:01:49.534Z,61.20
2022-08-26T16:04:21.003Z,61.17
2022-08-26T16:06:52.291Z,61.19
2022-08-26T16:09:24.216Z,61.81
2022-08-26T16:11:51.249Z,61.66
2022-08-26T16:14:18.042Z,61.93
2022-08-26T16:16:44.742Z,62.30
2022-08-26T16:19:11.721Z,62.44
2022-08-26T16:21:40.397Z,62.34
2022-08-26T16:24:07.928Z,62.76
2022-08-26T16:26:36.846Z,63.26
2022-08-26T16:29:08.709Z,63.08
2022-08-26T16:31:40.329Z,63.72
2022-08-26T16:34:08.021Z,63.75
2022-08-26T16:36:36.718Z,63.66
2022-08-26T16:39:08.274Z,63.75
2022-08-26T16:41:35.435Z,64.04
2022-08-26T16:44:02.452Z,64.15
2022-08-26T16:46:29.938Z,65.77
2022-08-26T16:48:58.452Z,64.23
2022-08-26T16:51:27.792Z,65.51
2022-08-26T16:53:56.535Z,65.17
2022-08-26T16:56:33.382Z,63.62
2022-08-26T16:59:02.088Z,63.96
2022-08-26T17:01:28.757Z,64.21
2022-08-26T17:03:55.469Z,64.29
2022-08-26T17:06:24.521Z,64.27
2022-08-26T17:08:51.444Z,64.43
2022-08-26T17:11:18.694Z,63.80
2022-08-26T17:13:47.762Z,63.94
2022-08-26T17:16:15.206Z,63.80
2022-08-26T17:18:41.948Z,64.27
2022-08-26T17:21:12.880Z,64.26
2022-08-26T17:23:41.256Z,64.04
2022-08-26T17:26:08.409Z,63.71
2022-08-26T17:28:35.557Z,63.90
2022-08-26T17:31:04.849Z,64.21
2022-08-26T17:33:34.428Z,63.77
2022-08-26T17:36:03.475Z,64.08
2022-08-26T17:38:32.709Z,64.07
2022-08-26T17:40:59.320Z,64.01
2022-08-26T17:43:26.895Z,63.98
2022-08-26T17:46:04.614Z,64.26
2022-08-26T17:48:35.059Z,64.34
2022-08-26T17:51:06.801Z,64.57
2022-08-26T17:53:34.101Z,64.65
2022-08-26T17:56:00.850Z,64.47
2022-08-26T17:58:31.052Z,64.57
2022-08-26T18:01:01.273Z,64.71
2022-08-26T18:03:30.150Z,64.55
2022-08-26T18:06:01.776Z,64.57
2022-08-26T18:08:33.857Z,64.67
2022-08-26T18:11:05.783Z,64.41
2022-08-26T18:13:33.137Z,64.69
2022-08-26T18:16:05.602Z,65.19
2022-08-26T18:18:35.887Z,65.14
2022-08-26T18:21:05.661Z,66.02
2022-08-26T18:23:32.254Z,67.20
2022-08-26T18:25:58.868Z,67.11
2022-08-26T18:28:28.503Z,66.03
2022-08-26T18:30:57.846Z,66.98
2022-08-26T18:33:24.452Z,66.25
2022-08-26T18:35:53.328Z,66.71
2022-08-26T18:38:22.440Z,66.19
2022-08-26T18:40:52.010Z,67.47
2022-08-26T18:43:18.959Z,68.56
2022-08-26T18:45:45.532Z,71.88
2022-08-26T18:48:15.777Z,76.08
2022-08-26T18:50:46.989Z,78.66
2022-08-26T18:53:13.913Z,79.47
2022-08-26T18:55:40.966Z,82.99
2022-08-26T18:58:08.043Z,88.97
2022-08-26T19:00:34.592Z,90.26
2022-08-26T19:03:01.231Z,97.78
2022-08-26T19:05:30.116Z,93.24
2022-08-26T19:07:56.687Z,94.21
2022-08-26T19:10:24.586Z,98.79
2022-08-26T19:12:51.811Z,98.52
2022-08-26T19:15:23.507Z,100.00
2022-08-26T19:17:50.345Z,100.00
2022-08-26T19:20:17.029Z,100.00
2022-08-26T19:22:48.307Z,100.00
2022-08-26T19:25:15.395Z,100.00
2022-08-26T19:27:46.480Z,100.00
2022-08-26T19:30:15.861Z,100.00
2022-08-26T19:32:44.718Z,100.00
2022-08-26T19:35:13.510Z,100.00
2022-08-26T19:37:40.083Z,100.00
2022-08-26T19:40:07.768Z,100.00
2022-08-26T19:42:34.423Z,100.00
2022-08-26T19:45:24.325Z,100.00
2022-08-26T19:47:52.980Z,100.00
2022-08-26T19:50:22.090Z,100.00
2022-08-26T19:52:48.921Z,100.00
2022-08-26T19:55:20.473Z,100.00
2022-08-26T19:57:47.177Z,100.00
2022-08-26T20:00:20.340Z,100.00
2022-08-26T20:02:47.442Z,100.00
2022-08-26T20:05:15.817Z,100.00
2022-08-26T20:07:42.503Z,100.00
2022-08-26T20:10:14.289Z,100.00
2022-08-26T20:12:41.786Z,100.00
2022-08-26T20:15:10.196Z,100.00
2022-08-26T20:17:39.544Z,100.00
2022-08-26T20:20:33.285Z,100.00
2022-08-26T20:23:04.453Z,100.00
2022-08-26T20:25:34.095Z,100.00
2022-08-26T20:28:01.258Z,100.00
2022-08-26T20:30:28.420Z,100.00
2022-08-26T20:32:57.787Z,100.00
2022-08-26T20:35:27.504Z,100.00
2022-08-26T20:37:54.098Z,100.00
2022-08-26T20:40:22.166Z,100.00
2022-08-26T20:42:48.860Z,100.00
2022-08-26T20:45:18.438Z,100.00
2022-08-26T20:47:48.487Z,100.00
2022-08-26T20:50:15.272Z,100.00
2022-08-26T20:52:41.841Z,100.00
2022-08-26T20:55:08.975Z,100.00
2022-08-26T20:57:37.810Z,100.00
2022-08-26T21:00:05.968Z,100.00
2022-08-26T21:02:33.101Z,100.00
2022-08-26T21:05:03.174Z,100.00
2022-08-26T21:07:30.673Z,100.00
2022-08-26T21:09:57.295Z,100.00
2022-08-26T21:12:24.383Z,100.00
2022-08-26T21:14:50.937Z,100.00
2022-08-26T21:17:19.941Z,100.00
2022-08-26T21:19:49.269Z,100.00
2022-08-26T21:22:15.866Z,100.00
2022-08-26T21:24:44.808Z,100.00
2022-08-26T21:27:11.488Z,100.00
2022-08-26T21:29:38.105Z,100.00
2022-08-26T21:32:07.988Z,100.00
2022-08-26T21:34:36.661Z,100.00
2022-08-26T21:37:05.963Z,100.00
2022-08-26T21:39:43.098Z,100.00
2022-08-26T21:42:09.699Z,100.00
2022-08-26T21:44:36.359Z,100.00
2022-08-26T21:47:04.903Z,100.00
2022-08-26T21:49:31.600Z,100.00
2022-08-26T21:51:58.285Z,100.00
2022-08-26T21:54:24.903Z,100.00
2022-08-26T21:56:53.349Z,100.00
2022-08-26T21:59:19.925Z,100.00
2022-08-26T22:01:47.118Z,100.00
2022-08-26T22:04:16.256Z,100.00
2022-08-26T22:06:50.689Z,100.00
2022-08-26T22:09:21.712Z,100.00
2022-08-26T22:11:49.047Z,100.00
2022-08-26T22:14:23.952Z,100.00
2022-08-26T22:16:54.598Z,100.00
2022-08-26T22:19:24.204Z,100.00
2022-08-26T22:21:57.867Z,100.00
2022-08-26T22:24:27.103Z,100.00
2022-08-26T22:26:56.015Z,100.00
2022-08-26T22:29:25.705Z,100.00
2022-08-26T22:31:54.731Z,100.00
2022-08-26T22:34:23.718Z,100.00
2022-08-26T22:36:50.761Z,100.00
2022-08-26T22:39:20.299Z,100.00
2022-08-26T22:41:48.418Z,100.00
2022-08-26T22:44:18.363Z,100.00
2022-08-26T22:46:49.235Z,100.00
2022-08-26T22:49:16.608Z,100.00
2022-08-26T22:51:46.993Z,100.00
2022-08-26T22:54:14.896Z,100.00
2022-08-26T22:56:42.737Z,100.00
2022-08-26T22:59:09.500Z,100.00
2022-08-26T23:01:41.258Z,100.00
2022-08-26T23:04:09.867Z,100.00
2022-08-26T23:06:41.274Z,100.00
2022-08-26T23:09:11.655Z,100.00
2022-08-26T23:11:42.182Z,100.00
2022-08-26T23:14:09.055Z,100.00
2022-08-26T23:16:39.361Z,100.00
2022-08-26T23:19:06.903Z,100.00
2022-08-26T23:21:35.871Z,100.00
2022-08-26T23:24:06.206Z,100.00
2022-08-26T23:26:33.784Z,100.00
2022-08-26T23:29:01.467Z,100.00
2022-08-26T23:31:28.233Z,100.00
2022-08-26T23:34:16.101Z,100.00
2022-08-26T23:36:46.420Z,100.00
2022-08-26T23:39:16.545Z,100.00
2022-08-26T23:41:45.641Z,100.00
2022-08-26T23:44:12.832Z,100.00
2022-08-26T23:46:39.939Z,100.00
2022-08-26T23:49:12.875Z,100.00
2022-08-26T23:52:00.587Z,100.00
2022-08-26T23:54:29.813Z,100.00
2022-08-26T23:56:58.822Z,100.00
2022-08-26T23:59:25.871Z,100.00
